Time;durP1;ratioP1;P1;durP2;ratioP2;P2;SDS_P1;SDS_P2;PMS_P1;PMS_P2;Temp;Humidity;BMP_temperature;BMP_pressure;BME280_temperature;BME280_humidity;BME280_pressure;Samples;Min_cycle;Max_cycle;Signal;HPM_P1;HPM_P2
2023/03/11 00:01:02;;;;;;;10.00;9.70;;;2.70;99.90;;;;;;5147988;27;20240;-84
2023/03/11 00:03:32;;;;;;;10.07;9.77;;;2.70;99.90;;;;;;5151333;27;20239;-83
2023/03/11 00:06:05;;;;;;;10.13;9.83;;;2.70;99.90;;;;;;5150855;27;20235;-84
2023/03/11 00:08:33;;;;;;;10.20;9.90;;;2.60;99.90;;;;;;5150879;27;20296;-83
2023/03/11 00:11:01;;;;;;;10.27;9.97;;;2.60;99.90;;;;;;5151174;27;20239;-84
2023/03/11 00:13:30;;;;;;;10.40;10.10;;;2.60;99.90;;;;;;5151554;27;20275;-83
2023/03/11 00:16:00;;;;;;;10.00;9.70;;;2.60;99.90;;;;;;5151491;27;20258;-84
2023/03/11 00:18:30;;;;;;;10.20;9.90;;;2.60;99.90;;;;;;5152049;27;20231;-84
2023/03/11 00:21:01;;;;;;;10.10;9.80;;;2.50;99.90;;;;;;5151145;27;20231;-84
2023/03/11 00:23:29;;;;;;;9.97;9.67;;;2.50;99.90;;;;;;5150938;27;20215;-83
2023/03/11 00:25:58;;;;;;;10.10;9.80;;;2.50;99.90;;;;;;5150709;27;20232;-83
2023/03/11 00:28:27;;;;;;;10.03;9.73;;;2.40;99.90;;;;;;5151141;27;20238;-83
2023/03/11 00:30:56;;;;;;;9.80;9.50;;;2.40;99.90;;;;;;5151015;27;20284;-84
2023/03/11 00:33:26;;;;;;;9.90;9.60;;;2.40;99.90;;;;;;5151198;27;20314;-83
2023/03/11 00:35:55;;;;;;;9.93;9.63;;;2.40;99.90;;;;;;5152971;27;20252;-84
2023/03/11 00:38:27;;;;;;;9.80;9.50;;;2.40;99.90;;;;;;5152554;27;20271;-83
2023/03/11 00:40:54;;;;;;;9.70;9.40;;;2.40;99.90;;;;;;5151453;27;20783;-83
2023/03/11 00:43:24;;;;;;;9.83;9.53;;;2.40;99.90;;;;;;5150773;27;20225;-83
2023/03/11 00:45:53;;;;;;;9.80;9.50;;;2.40;99.90;;;;;;5151670;27;20229;-84
2023/03/11 00:48:23;;;;;;;9.93;9.63;;;2.40;99.90;;;;;;5151117;27;20224;-84
2023/03/11 00:50:51;;;;;;;9.60;9.30;;;2.40;99.90;;;;;;5150679;27;20248;-84
2023/03/11 00:53:21;;;;;;;9.70;9.40;;;2.30;99.90;;;;;;5151503;27;20231;-84
2023/03/11 00:55:53;;;;;;;9.70;9.40;;;2.40;99.90;;;;;;5151676;27;20232;-84
2023/03/11 00:58:26;;;;;;;9.93;9.63;;;2.30;99.90;;;;;;5151538;27;20259;-83
2023/03/11 01:00:58;;;;;;;9.60;9.30;;;2.30;99.90;;;;;;5151282;27;20263;-83
2023/03/11 01:03:27;;;;;;;9.57;9.27;;;2.20;99.90;;;;;;5152360;27;20242;-83
2023/03/11 01:05:57;;;;;;;9.90;9.60;;;2.30;99.90;;;;;;5151080;27;20928;-84
2023/03/11 01:08:28;;;;;;;9.63;9.33;;;2.20;99.90;;;;;;5152660;27;20232;-83
2023/03/11 01:11:04;;;;;;;9.77;9.47;;;2.20;99.90;;;;;;5153623;27;20270;-83
2023/03/11 01:13:34;;;;;;;9.80;9.50;;;2.20;99.90;;;;;;5152951;27;20232;-83
2023/03/11 01:16:03;;;;;;;9.90;9.60;;;2.10;99.90;;;;;;5152753;27;20239;-83
2023/03/11 01:18:33;;;;;;;10.00;9.70;;;2.10;99.90;;;;;;5150630;27;20228;-83
2023/03/11 01:21:02;;;;;;;9.93;9.63;;;2.00;99.90;;;;;;5151407;27;20757;-84
2023/03/11 01:23:31;;;;;;;10.00;9.70;;;2.00;99.90;;;;;;5151152;27;20282;-83
2023/03/11 01:26:14;;;;;;;10.03;9.73;;;2.00;99.90;;;;;;5150403;27;20235;-84
2023/03/11 01:28:42;;;;;;;10.20;9.90;;;1.90;99.90;;;;;;5150912;27;20228;-83
2023/03/11 01:31:21;;;;;;;10.27;9.97;;;1.80;99.90;;;;;;5150591;27;20250;-83
2023/03/11 01:33:48;;;;;;;10.10;9.80;;;1.80;99.90;;;;;;5151265;27;20212;-84
2023/03/11 01:36:16;;;;;;;9.87;9.57;;;1.80;99.90;;;;;;5150270;27;20224;-83
2023/03/11 01:38:46;;;;;;;10.10;9.80;;;1.80;99.90;;;;;;5150454;27;20277;-83
2023/03/11 01:44:03;;;;;;;10.10;9.80;;;1.80;99.90;;;;;;5149046;27;20220;-83
2023/03/11 01:46:40;;;;;;;9.93;9.63;;;1.70;99.90;;;;;;5149760;27;20213;-84
2023/03/11 01:49:13;;;;;;;10.17;9.87;;;1.70;99.90;;;;;;5149985;27;20235;-84
2023/03/11 01:51:43;;;;;;;10.00;9.70;;;1.70;99.90;;;;;;5149344;27;20228;-83
2023/03/11 01:54:17;;;;;;;10.20;9.90;;;1.70;99.90;;;;;;5149857;27;20219;-84
2023/03/11 01:56:56;;;;;;;10.20;9.90;;;1.70;99.90;;;;;;5132998;27;20232;-84
2023/03/11 02:02:17;;;;;;;10.20;9.90;;;1.70;99.90;;;;;;5147520;27;20240;-84
2023/03/11 02:04:45;;;;;;;10.13;9.83;;;1.70;99.90;;;;;;5133484;27;20224;-83
2023/03/11 02:07:14;;;;;;;10.03;9.73;;;1.70;99.90;;;;;;5131805;27;20244;-83
2023/03/11 02:09:42;;;;;;;10.10;9.80;;;1.70;99.90;;;;;;5130890;27;20231;-84
2023/03/11 02:12:21;;;;;;;10.20;9.90;;;1.70;99.90;;;;;;5129862;27;20233;-84
2023/03/11 02:14:52;;;;;;;10.30;10.00;;;1.70;99.90;;;;;;5129662;27;20232;-84
2023/03/11 02:17:21;;;;;;;9.97;9.67;;;1.60;99.90;;;;;;5129267;27;20288;-83
2023/03/11 02:20:15;;;;;;;10.00;9.70;;;1.60;99.90;;;;;;5129311;28;20255;-84
2023/03/11 02:22:45;;;;;;;10.20;9.90;;;1.60;99.90;;;;;;5129882;27;20228;-83
2023/03/11 02:25:24;;;;;;;10.10;9.80;;;1.60;99.90;;;;;;5128916;27;20212;-83
2023/03/11 02:28:02;;;;;;;10.20;9.90;;;1.60;99.90;;;;;;5127878;27;20240;-84
2023/03/11 02:30:33;;;;;;;10.10;9.80;;;1.50;99.90;;;;;;5128992;27;20640;-83
2023/03/11 02:33:02;;;;;;;10.23;9.93;;;1.50;99.90;;;;;;5128909;28;20221;-83
2023/03/11 02:35:30;;;;;;;10.03;9.73;;;1.40;99.90;;;;;;5128246;27;20217;-84
2023/03/11 02:38:00;;;;;;;10.10;9.80;;;1.40;99.90;;;;;;5128035;27;20228;-84
2023/03/11 02:40:55;;;;;;;10.40;10.10;;;1.40;99.90;;;;;;5128638;27;20252;-84
2023/03/11 02:43:35;;;;;;;10.40;10.10;;;1.40;99.90;;;;;;5128639;27;20236;-83
2023/03/11 02:46:05;;;;;;;10.10;9.80;;;1.30;99.90;;;;;;5128739;27;20273;-84
2023/03/11 02:48:32;;;;;;;10.20;9.90;;;1.30;99.90;;;;;;5129599;27;20244;-83
2023/03/11 02:51:01;;;;;;;10.27;9.97;;;1.30;99.90;;;;;;5128328;27;20237;-83
2023/03/11 02:56:18;;;;;;;10.07;9.77;;;1.30;99.90;;;;;;5129033;27;20242;-84
2023/03/11 02:58:56;;;;;;;10.20;9.90;;;1.30;99.90;;;;;;5127883;27;20233;-84
2023/03/11 03:01:26;;;;;;;10.10;9.80;;;1.30;99.90;;;;;;5126965;27;20342;-83
2023/03/11 03:03:55;;;;;;;10.10;9.80;;;1.30;99.90;;;;;;5128344;27;20268;-83
2023/03/11 03:06:25;;;;;;;10.20;9.90;;;1.20;99.90;;;;;;5127383;27;20232;-83
2023/03/11 03:08:54;;;;;;;10.07;9.77;;;1.20;99.90;;;;;;5128275;27;20264;-84
2023/03/11 03:11:23;;;;;;;9.90;9.60;;;1.20;99.90;;;;;;5127327;27;20240;-83
2023/03/11 03:16:39;;;;;;;10.00;9.70;;;1.20;99.90;;;;;;5127123;27;20220;-84
2023/03/11 03:19:09;;;;;;;9.90;9.60;;;1.20;99.90;;;;;;5134291;27;20288;-83
2023/03/11 03:21:39;;;;;;;10.20;9.90;;;1.20;99.90;;;;;;5126384;27;20323;-84
2023/03/11 03:24:08;;;;;;;10.17;9.87;;;1.20;99.90;;;;;;5126551;27;20229;-84
2023/03/11 03:26:37;;;;;;;9.83;9.53;;;1.20;99.90;;;;;;5128965;27;20216;-84
2023/03/11 03:29:16;;;;;;;10.10;9.80;;;1.10;99.90;;;;;;5125849;27;20232;-83
2023/03/11 03:31:45;;;;;;;9.97;9.67;;;1.20;99.90;;;;;;5126660;27;20237;-83
2023/03/11 03:34:14;;;;;;;10.10;9.80;;;1.10;99.90;;;;;;5126407;27;20248;-83
2023/03/11 03:36:45;;;;;;;10.17;9.87;;;1.10;99.90;;;;;;5125282;27;20225;-82
2023/03/11 03:39:14;;;;;;;9.93;9.63;;;1.10;99.90;;;;;;5130585;27;20293;-83
2023/03/11 03:41:45;;;;;;;10.10;9.80;;;1.10;99.90;;;;;;5138451;27;20229;-83
2023/03/11 03:44:15;;;;;;;10.00;9.70;;;1.10;99.90;;;;;;5147156;27;20289;-83
2023/03/11 03:46:42;;;;;;;10.10;9.80;;;1.10;99.90;;;;;;5139876;27;20263;-83
2023/03/11 03:49:11;;;;;;;10.00;9.70;;;1.10;99.90;;;;;;5126244;27;20288;-83
2023/03/11 03:51:40;;;;;;;9.97;9.67;;;1.10;99.90;;;;;;5125653;27;20242;-83
2023/03/11 03:54:10;;;;;;;9.77;9.47;;;1.10;99.90;;;;;;5134804;27;20260;-83
2023/03/11 03:56:40;;;;;;;9.97;9.67;;;1.10;99.90;;;;;;5134508;27;20209;-84
2023/03/11 03:59:09;;;;;;;9.67;9.37;;;1.00;99.90;;;;;;5127809;27;20229;-83
2023/03/11 04:01:43;;;;;;;9.73;9.43;;;1.00;99.90;;;;;;5129662;27;20321;-84
2023/03/11 04:04:11;;;;;;;9.60;9.30;;;1.00;99.90;;;;;;5138842;27;20220;-83
2023/03/11 04:06:39;;;;;;;9.77;9.47;;;1.00;99.90;;;;;;5148162;27;20224;-84
2023/03/11 04:09:09;;;;;;;10.00;9.70;;;1.10;99.90;;;;;;5146476;27;20224;-84
2023/03/11 04:11:38;;;;;;;9.77;9.47;;;1.00;99.90;;;;;;5146960;27;20274;-84
2023/03/11 04:14:08;;;;;;;9.70;9.40;;;1.00;99.90;;;;;;5147408;27;20224;-84
2023/03/11 04:16:45;;;;;;;9.63;9.33;;;1.00;99.90;;;;;;5146946;27;20299;-83
2023/03/11 04:19:15;;;;;;;9.73;9.43;;;1.00;99.90;;;;;;5147708;27;20224;-84
2023/03/11 04:21:46;;;;;;;9.70;9.40;;;1.00;99.90;;;;;;5147340;27;20237;-84
2023/03/11 04:24:14;;;;;;;9.73;9.43;;;1.00;99.90;;;;;;5147894;27;20227;-83
2023/03/11 04:26:43;;;;;;;9.67;9.37;;;1.00;99.90;;;;;;5147261;27;20251;-83
2023/03/11 04:29:13;;;;;;;9.83;9.53;;;1.00;99.90;;;;;;5135437;27;20229;-84
2023/03/11 04:31:45;;;;;;;9.47;9.17;;;1.00;99.90;;;;;;5127207;27;20240;-84
2023/03/11 04:34:13;;;;;;;9.80;9.50;;;1.00;99.90;;;;;;5128100;27;20255;-85
2023/03/11 04:36:41;;;;;;;9.50;9.20;;;1.00;99.90;;;;;;5128876;28;20247;-83
2023/03/11 04:39:10;;;;;;;9.67;9.37;;;1.00;99.90;;;;;;5128349;27;20296;-84
2023/03/11 04:41:41;;;;;;;9.37;9.07;;;1.00;99.90;;;;;;5132994;27;20233;-84
2023/03/11 04:44:10;;;;;;;9.50;9.20;;;1.00;99.90;;;;;;5128566;27;20272;-84
2023/03/11 04:46:39;;;;;;;9.70;9.40;;;1.00;99.90;;;;;;5125967;27;20287;-84
2023/03/11 04:49:28;;;;;;;9.57;9.27;;;0.90;99.90;;;;;;5127802;27;20251;-85
2023/03/11 04:51:55;;;;;;;9.90;9.60;;;0.90;99.90;;;;;;5129059;27;20298;-85
2023/03/11 04:54:25;;;;;;;9.57;9.27;;;0.90;99.90;;;;;;5133017;27;20229;-85
2023/03/11 04:56:54;;;;;;;9.57;9.27;;;0.80;99.90;;;;;;5130870;27;20285;-85
2023/03/11 04:59:24;;;;;;;9.70;9.40;;;0.80;99.90;;;;;;5130650;27;20259;-84
2023/03/11 05:01:56;;;;;;;9.67;9.37;;;0.90;99.90;;;;;;5136196;27;20227;-84
2023/03/11 05:04:25;;;;;;;9.70;9.40;;;0.80;99.90;;;;;;5129544;27;20237;-84
2023/03/11 05:06:53;;;;;;;9.50;9.20;;;0.80;99.90;;;;;;5129449;27;20297;-85
2023/03/11 05:09:22;;;;;;;9.50;9.20;;;0.80;99.90;;;;;;5129747;27;20245;-85
2023/03/11 05:11:51;;;;;;;9.93;9.63;;;0.80;99.90;;;;;;5129326;27;20232;-83
2023/03/11 05:14:20;;;;;;;9.70;9.40;;;0.80;99.90;;;;;;5129958;27;20217;-83
2023/03/11 05:16:49;;;;;;;9.73;9.43;;;0.80;99.90;;;;;;5129798;27;20217;-83
2023/03/11 05:19:37;;;;;;;9.80;9.50;;;0.80;99.90;;;;;;5130420;27;20235;-84
2023/03/11 05:22:09;;;;;;;9.90;9.60;;;0.80;99.90;;;;;;5130367;27;20247;-84
2023/03/11 05:24:36;;;;;;;9.90;9.60;;;0.80;99.90;;;;;;5130557;27;20235;-84
2023/03/11 05:27:05;;;;;;;9.87;9.57;;;0.80;99.90;;;;;;5130846;27;20274;-85
2023/03/11 05:29:35;;;;;;;10.17;9.87;;;0.80;99.90;;;;;;5131084;27;20241;-84
2023/03/11 05:32:04;;;;;;;10.00;9.70;;;0.80;99.90;;;;;;5130744;27;20235;-85
2023/03/11 05:34:33;;;;;;;9.90;9.60;;;0.70;99.90;;;;;;5129946;27;20323;-84
2023/03/11 05:37:03;;;;;;;10.10;9.80;;;0.70;99.90;;;;;;5129491;27;20323;-84
2023/03/11 05:39:41;;;;;;;9.70;9.40;;;0.70;99.90;;;;;;5132873;27;20327;-85
2023/03/11 05:42:10;;;;;;;9.87;9.57;;;0.70;99.90;;;;;;5133146;27;20237;-85
2023/03/11 05:44:40;;;;;;;9.90;9.60;;;0.70;99.90;;;;;;5131994;27;20229;-84
2023/03/11 05:47:09;;;;;;;10.10;9.80;;;0.70;99.90;;;;;;5131466;27;20327;-84
2023/03/11 05:49:39;;;;;;;9.90;9.60;;;0.60;99.90;;;;;;5139680;27;20232;-84
2023/03/11 05:52:09;;;;;;;10.10;9.80;;;0.60;99.90;;;;;;5152005;27;20228;-84
2023/03/11 05:57:25;;;;;;;9.70;9.40;;;0.70;99.90;;;;;;5131292;27;20221;-84
2023/03/11 05:59:55;;;;;;;9.87;9.57;;;0.70;99.90;;;;;;5131725;27;20233;-84
2023/03/11 06:02:25;;;;;;;9.87;9.57;;;0.70;99.90;;;;;;5150907;27;20239;-83
2023/03/11 06:04:55;;;;;;;9.90;9.60;;;0.70;99.90;;;;;;5150687;27;20278;-84
2023/03/11 06:07:24;;;;;;;10.17;9.87;;;0.70;99.90;;;;;;5151061;27;20251;-84
2023/03/11 06:12:41;;;;;;;9.80;9.50;;;0.80;99.90;;;;;;5156647;27;20232;-84
2023/03/11 06:15:10;;;;;;;9.83;9.53;;;0.80;99.90;;;;;;5134916;27;20228;-84
2023/03/11 06:17:39;;;;;;;9.80;9.50;;;0.90;99.90;;;;;;5135817;27;20220;-85
2023/03/11 06:20:12;;;;;;;9.70;9.40;;;0.90;99.90;;;;;;5139405;27;20240;-84
2023/03/11 06:22:39;;;;;;;9.87;9.57;;;0.90;99.90;;;;;;5138948;27;20244;-84
2023/03/11 06:27:55;;;;;;;9.50;9.20;;;0.90;99.90;;;;;;5140564;27;20232;-84
2023/03/11 06:30:24;;;;;;;9.70;9.40;;;0.90;99.90;;;;;;5141942;27;20244;-84
2023/03/11 06:32:54;;;;;;;9.43;9.13;;;0.90;99.90;;;;;;5142254;27;20300;-85
2023/03/11 06:35:24;;;;;;;9.60;9.30;;;1.00;99.90;;;;;;5136996;27;20221;-85
2023/03/11 06:37:53;;;;;;;9.77;9.47;;;1.00;99.90;;;;;;5136325;27;20224;-84
2023/03/11 06:40:25;;;;;;;9.90;9.60;;;1.00;99.90;;;;;;5138015;27;20233;-84
2023/03/11 06:42:52;;;;;;;9.73;9.43;;;1.00;99.90;;;;;;5139996;27;20228;-84
2023/03/11 06:45:21;;;;;;;9.83;9.53;;;1.00;99.90;;;;;;5141413;27;20216;-85
2023/03/11 06:47:51;;;;;;;9.60;9.30;;;1.00;99.90;;;;;;5139932;27;20255;-84
2023/03/11 06:50:22;;;;;;;9.60;9.30;;;1.00;99.90;;;;;;5140393;27;20212;-84
2023/03/11 06:52:50;;;;;;;9.80;9.50;;;1.00;99.90;;;;;;5136603;27;20233;-84
2023/03/11 06:55:20;;;;;;;9.90;9.60;;;1.10;99.90;;;;;;5139038;27;20231;-84
2023/03/11 06:57:51;;;;;;;9.80;9.50;;;1.10;99.90;;;;;;5134178;27;20220;-84
2023/03/11 07:00:19;;;;;;;9.90;9.60;;;1.10;99.90;;;;;;5137831;27;20213;-85
2023/03/11 07:02:47;;;;;;;10.13;9.83;;;1.00;99.90;;;;;;5136233;27;20233;-84
2023/03/11 07:05:16;;;;;;;10.03;9.73;;;1.00;99.90;;;;;;5130922;27;20235;-84
2023/03/11 07:07:47;;;;;;;10.37;10.07;;;1.00;99.90;;;;;;5128911;27;20213;-85
2023/03/11 07:10:16;;;;;;;10.07;9.77;;;1.00;99.90;;;;;;5127710;27;20608;-85
2023/03/11 07:12:45;;;;;;;10.07;9.77;;;1.00;99.90;;;;;;5128602;27;20259;-84
2023/03/11 07:15:24;;;;;;;10.20;9.90;;;1.10;99.90;;;;;;5128572;27;20229;-84
2023/03/11 07:17:52;;;;;;;10.30;10.00;;;1.00;99.90;;;;;;5129196;27;20287;-84
2023/03/11 07:20:22;;;;;;;10.03;9.73;;;1.10;99.90;;;;;;5128176;27;20243;-84
2023/03/11 07:22:52;;;;;;;10.07;9.77;;;1.10;99.90;;;;;;5128478;28;20233;-84
2023/03/11 07:25:21;;;;;;;10.33;10.03;;;1.10;99.90;;;;;;5128618;27;20228;-84
2023/03/11 07:27:50;;;;;;;10.30;10.00;;;1.20;99.90;;;;;;5129498;27;20224;-84
2023/03/11 07:30:22;;;;;;;10.13;9.83;;;1.30;99.90;;;;;;5128326;27;20256;-84
2023/03/11 07:32:50;;;;;;;10.20;9.90;;;1.30;99.90;;;;;;5129477;27;20288;-84
2023/03/11 07:35:19;;;;;;;10.20;9.90;;;1.50;99.90;;;;;;5128353;27;20216;-84
2023/03/11 07:37:48;;;;;;;10.50;10.20;;;1.50;99.90;;;;;;5128705;27;20374;-84
2023/03/11 07:40:18;;;;;;;10.23;9.93;;;1.50;99.90;;;;;;5131483;27;20239;-88
2023/03/11 07:42:48;;;;;;;10.40;10.10;;;1.60;99.90;;;;;;5127314;27;20315;-85
2023/03/11 07:45:17;;;;;;;10.30;10.00;;;1.60;99.90;;;;;;5127979;27;20232;-86
2023/03/11 07:47:55;;;;;;;10.33;10.03;;;1.70;99.90;;;;;;5128815;27;20240;-84
2023/03/11 07:50:24;;;;;;;10.13;9.83;;;1.70;99.90;;;;;;5132534;27;20240;-84
2023/03/11 07:52:53;;;;;;;10.10;9.80;;;1.70;99.90;;;;;;5135418;27;20256;-84
2023/03/11 07:55:23;;;;;;;10.50;10.20;;;1.70;99.90;;;;;;5135909;27;20333;-83
2023/03/11 07:57:52;;;;;;;10.03;9.73;;;1.70;99.90;;;;;;5132390;27;20209;-84
2023/03/11 08:00:22;;;;;;;9.73;9.43;;;1.70;99.90;;;;;;5131673;27;20236;-85
2023/03/11 08:02:56;;;;;;;9.93;9.63;;;1.70;99.90;;;;;;5131173;27;20244;-85
2023/03/11 08:05:23;;;;;;;10.53;10.23;;;1.70;99.90;;;;;;5130175;27;20225;-84
2023/03/11 08:07:52;;;;;;;9.90;9.60;;;1.60;99.90;;;;;;5130931;27;20244;-84
2023/03/11 08:10:21;;;;;;;10.13;9.83;;;1.70;99.90;;;;;;5128805;27;20236;-85
2023/03/11 08:12:51;;;;;;;10.20;9.90;;;1.70;99.90;;;;;;5130884;27;20248;-83
2023/03/11 08:15:20;;;;;;;10.20;9.90;;;1.80;99.90;;;;;;5129345;27;20253;-84
2023/03/11 08:17:50;;;;;;;10.10;9.80;;;1.90;99.90;;;;;;5127372;27;20246;-83
2023/03/11 08:20:28;;;;;;;9.93;9.63;;;1.90;99.90;;;;;;5143200;27;20240;-83
2023/03/11 08:22:57;;;;;;;10.20;9.90;;;2.00;99.90;;;;;;5146766;27;20254;-83
2023/03/11 08:25:27;;;;;;;10.40;10.10;;;2.10;99.90;;;;;;5145149;27;20289;-83
2023/03/11 08:27:56;;;;;;;9.90;9.60;;;2.10;99.90;;;;;;5144924;27;20255;-84
2023/03/11 08:30:26;;;;;;;10.20;9.90;;;2.20;99.90;;;;;;5150582;27;20240;-83
2023/03/11 08:32:55;;;;;;;10.10;9.80;;;2.20;99.90;;;;;;5151102;27;20232;-80
2023/03/11 08:35:34;;;;;;;10.27;9.97;;;2.20;99.90;;;;;;5149564;27;20250;-82
2023/03/11 08:38:03;;;;;;;10.27;9.97;;;2.40;99.90;;;;;;5150736;27;20280;-82
2023/03/11 08:40:33;;;;;;;10.37;10.07;;;2.30;99.90;;;;;;5150107;27;20262;-82
2023/03/11 08:43:02;;;;;;;9.97;9.67;;;2.40;99.90;;;;;;5149907;27;20270;-84
2023/03/11 08:45:31;;;;;;;10.00;9.70;;;2.50;99.90;;;;;;5150129;27;20232;-84
2023/03/11 08:48:00;;;;;;;9.90;9.60;;;2.60;99.90;;;;;;5151650;27;20223;-84
2023/03/11 08:50:39;;;;;;;9.90;9.60;;;2.60;99.90;;;;;;5151413;27;20231;-84
2023/03/11 08:53:09;;;;;;;9.93;9.63;;;2.60;99.90;;;;;;5152494;27;20294;-84
2023/03/11 08:55:38;;;;;;;9.90;9.60;;;2.70;99.90;;;;;;5152397;27;20281;-84
2023/03/11 08:58:08;;;;;;;10.13;9.83;;;2.80;99.90;;;;;;5151940;27;20277;-84
2023/03/11 09:00:37;;;;;;;10.10;9.80;;;2.90;99.90;;;;;;5151564;27;20307;-84
2023/03/11 09:03:07;;;;;;;9.90;9.60;;;3.00;99.90;;;;;;5150719;27;20228;-84
2023/03/11 09:05:38;;;;;;;9.90;9.60;;;3.20;99.90;;;;;;5151616;27;20217;-84
2023/03/11 09:08:06;;;;;;;10.07;9.77;;;3.30;99.90;;;;;;5152637;27;20232;-83
2023/03/11 09:10:34;;;;;;;10.00;9.70;;;3.30;99.90;;;;;;5145934;27;20262;-84
2023/03/11 09:13:04;;;;;;;10.00;9.70;;;3.30;99.90;;;;;;5147071;27;20235;-84
2023/03/11 09:15:33;;;;;;;9.50;9.20;;;3.50;99.90;;;;;;5151694;27;20239;-84
2023/03/11 09:18:02;;;;;;;10.00;9.70;;;3.50;99.90;;;;;;5151548;27;20220;-85
2023/03/11 09:20:32;;;;;;;10.20;9.90;;;3.20;99.90;;;;;;5150647;27;20257;-85
2023/03/11 09:25:48;;;;;;;9.93;9.63;;;2.80;99.90;;;;;;5150489;27;20254;-85
2023/03/11 09:28:18;;;;;;;10.10;9.80;;;3.00;99.90;;;;;;5149704;27;20216;-85
2023/03/11 09:30:47;;;;;;;10.00;9.70;;;2.80;99.90;;;;;;5150801;27;20232;-84
2023/03/11 09:33:17;;;;;;;10.00;9.70;;;2.70;99.90;;;;;;5150558;27;20247;-85
2023/03/11 09:35:46;;;;;;;10.03;9.73;;;2.60;99.90;;;;;;5151059;27;20287;-85
2023/03/11 09:41:05;;;;;;;9.70;9.40;;;2.80;99.90;;;;;;5149237;27;20231;-86
2023/03/11 09:43:58;;;;;;;10.23;9.93;;;3.00;99.90;;;;;;5150807;27;20228;-85
2023/03/11 09:47:20;;;;;;;10.40;10.10;;;3.30;99.90;;;;;;5150663;27;20232;-85
2023/03/11 09:50:17;;;;;;;10.07;9.77;;;3.30;99.90;;;;;;5149665;27;20288;-85
2023/03/11 09:52:56;;;;;;;10.03;9.73;;;3.30;99.90;;;;;;5148134;27;20228;-85
2023/03/11 09:55:47;;;;;;;9.90;9.60;;;3.20;99.90;;;;;;5149310;27;20255;-86
2023/03/11 09:58:23;;;;;;;9.80;9.50;;;3.10;99.90;;;;;;5144766;27;20224;-85
2023/03/11 10:00:52;;;;;;;9.97;9.67;;;3.00;99.90;;;;;;5148677;27;20231;-85
2023/03/11 10:03:32;;;;;;;10.27;9.97;;;2.60;99.90;;;;;;5148672;27;20232;-85
2023/03/11 10:06:18;;;;;;;10.33;10.03;;;2.30;99.90;;;;;;5148355;27;20242;-85
2023/03/11 10:09:03;;;;;;;10.30;10.00;;;1.90;99.90;;;;;;5149431;27;20228;-85
2023/03/11 10:12:00;;;;;;;10.20;9.90;;;1.70;99.90;;;;;;5153321;27;20212;-85
2023/03/11 10:14:56;;;;;;;10.20;9.90;;;1.80;99.90;;;;;;5148512;27;20234;-85
2023/03/11 10:20:38;;;;;;;10.07;9.77;;;2.20;99.90;;;;;;5146751;27;20219;-85
2023/03/11 10:23:26;;;;;;;10.47;10.17;;;2.50;99.90;;;;;;5147324;27;20231;-85
2023/03/11 10:26:04;;;;;;;10.40;10.10;;;2.80;99.90;;;;;;5150368;27;20231;-85
2023/03/11 10:28:42;;;;;;;10.20;9.90;;;3.10;99.90;;;;;;5152815;27;20277;-84
2023/03/11 10:34:16;;;;;;;10.10;9.80;;;2.90;99.90;;;;;;5148386;27;20292;-84
2023/03/11 10:37:03;;;;;;;10.07;9.77;;;2.80;99.90;;;;;;5148097;27;20255;-81
2023/03/11 10:39:33;;;;;;;10.10;9.80;;;2.70;99.90;;;;;;5128566;27;20323;-82
2023/03/11 10:42:02;;;;;;;10.00;9.70;;;2.80;99.90;;;;;;5127572;27;20247;-83
2023/03/11 10:44:41;;;;;;;10.07;9.77;;;3.00;99.90;;;;;;5145606;27;20220;-86
2023/03/11 10:47:18;;;;;;;10.40;10.10;;;3.10;99.90;;;;;;5152916;27;20223;-85
2023/03/11 10:49:47;;;;;;;10.57;10.27;;;3.30;99.90;;;;;;5154698;27;20212;-86
2023/03/11 10:52:16;;;;;;;10.10;9.80;;;3.50;99.90;;;;;;5141634;27;20236;-86
2023/03/11 10:54:47;;;;;;;9.77;9.47;;;3.70;99.90;;;;;;5134032;27;20287;-85
2023/03/11 10:57:25;;;;;;;9.93;9.63;;;3.80;99.90;;;;;;5133726;27;20253;-86
2023/03/11 11:00:08;;;;;;;10.00;9.70;;;3.80;99.90;;;;;;5131398;27;20244;-84
2023/03/11 11:02:41;;;;;;;10.10;9.80;;;3.70;99.90;;;;;;5130636;27;20229;-85
2023/03/11 11:05:31;;;;;;;9.93;9.63;;;3.50;99.90;;;;;;5127730;27;20250;-86
2023/03/11 11:10:53;;;;;;;9.87;9.57;;;3.90;99.90;;;;;;5127636;27;20243;-86
2023/03/11 11:13:24;;;;;;;10.07;9.77;;;4.70;99.90;;;;;;5128032;27;20236;-83
2023/03/11 11:16:09;;;;;;;9.93;9.63;;;5.10;99.90;;;;;;5127334;27;20217;-84
2023/03/11 11:18:47;;;;;;;10.03;9.73;;;5.40;99.90;;;;;;5126405;27;20243;-84
2023/03/11 11:21:17;;;;;;;10.10;9.80;;;5.30;99.90;;;;;;5127294;27;20260;-84
2023/03/11 11:23:50;;;;;;;9.83;9.53;;;4.80;99.90;;;;;;5126891;27;20232;-83
2023/03/11 11:26:26;;;;;;;9.90;9.60;;;4.70;99.90;;;;;;5126943;27;20264;-85
2023/03/11 11:29:12;;;;;;;10.20;9.90;;;4.40;99.90;;;;;;5127056;27;20220;-85
2023/03/11 11:31:50;;;;;;;9.93;9.63;;;4.20;99.90;;;;;;5130529;27;20228;-84
2023/03/11 11:34:30;;;;;;;10.00;9.70;;;3.90;99.90;;;;;;5129116;27;20268;-85
2023/03/11 11:42:32;;;;;;;9.80;9.50;;;3.80;99.90;;;;;;5126480;27;20259;-86
2023/03/11 11:47:58;;;;;;;10.13;9.83;;;3.80;99.90;;;;;;5128691;27;20224;-84
2023/03/11 11:50:35;;;;;;;9.93;9.63;;;4.00;99.90;;;;;;5146754;27;20236;-85
2023/03/11 11:53:16;;;;;;;10.30;10.00;;;4.10;99.90;;;;;;5136121;27;20228;-85
2023/03/11 11:55:52;;;;;;;10.10;9.80;;;4.20;99.90;;;;;;5133247;27;20204;-84
2023/03/11 11:58:21;;;;;;;10.13;9.83;;;4.30;99.90;;;;;;5126913;27;20225;-86
2023/03/11 12:01:08;;;;;;;10.17;9.87;;;4.60;99.90;;;;;;5128276;27;20278;-84
2023/03/11 12:04:41;;;;;;;9.80;9.50;;;4.90;99.90;;;;;;5127440;27;20263;-85
2023/03/11 12:13:47;;;;;;;9.63;9.33;;;4.70;99.90;;;;;;5127418;27;20217;-88
2023/03/11 12:16:33;;;;;;;9.90;9.60;;;5.10;99.90;;;;;;5122041;27;20289;-86
2023/03/11 12:19:15;;;;;;;9.90;9.60;;;5.20;99.90;;;;;;5129484;27;20221;-87
2023/03/11 12:22:08;;;;;;;9.83;9.53;;;5.00;99.90;;;;;;5128206;27;20235;-87
2023/03/11 12:25:13;;;;;;;9.67;9.37;;;4.50;99.90;;;;;;5128784;27;20263;-86
2023/03/11 12:27:52;;;;;;;9.70;9.40;;;4.20;99.90;;;;;;5136131;28;20228;-86
2023/03/11 12:30:28;;;;;;;9.70;9.40;;;3.90;99.90;;;;;;5132781;27;20235;-86
2023/03/11 12:33:01;;;;;;;9.40;9.10;;;3.90;99.90;;;;;;5129323;27;20225;-87
2023/03/11 12:35:37;;;;;;;9.50;9.20;;;3.90;99.90;;;;;;5138843;27;20228;-87
2023/03/11 12:41:11;;;;;;;9.70;9.40;;;3.60;99.90;;;;;;5150618;27;20212;-85
2023/03/11 12:44:06;;;;;;;9.33;9.03;;;3.50;99.90;;;;;;5163038;27;20241;-86
2023/03/11 12:47:29;;;;;;;9.77;9.47;;;3.40;99.90;;;;;;5147556;27;20228;-87
2023/03/11 12:50:32;;;;;;;9.90;9.60;;;3.50;99.90;;;;;;5147851;27;20220;-85
2023/03/11 12:53:02;;;;;;;9.57;9.27;;;3.60;99.90;;;;;;5147424;27;20255;-86
2023/03/11 12:55:40;;;;;;;9.63;9.33;;;3.60;99.90;;;;;;5147069;27;20220;-86
2023/03/11 12:58:38;;;;;;;9.73;9.43;;;3.50;99.90;;;;;;5146812;27;20223;-86
2023/03/11 13:01:58;;;;;;;9.77;9.47;;;3.50;99.90;;;;;;5140694;27;20271;-87
2023/03/11 13:04:45;;;;;;;9.63;9.33;;;3.60;99.90;;;;;;5127241;27;20324;-87
2023/03/11 13:07:50;;;;;;;10.10;9.80;;;3.70;99.90;;;;;;5126129;27;20236;-85
2023/03/11 13:10:38;;;;;;;9.80;9.50;;;3.70;99.90;;;;;;5108951;27;20275;-86
2023/03/11 13:13:43;;;;;;;9.60;9.30;;;3.60;99.90;;;;;;5128860;27;20316;-87
2023/03/11 13:16:40;;;;;;;9.20;8.90;;;3.50;99.90;;;;;;5126149;28;20217;-87
2023/03/11 13:19:42;;;;;;;9.50;9.20;;;3.30;99.90;;;;;;5129146;27;20286;-85
2023/03/11 13:22:46;;;;;;;9.30;9.00;;;3.20;99.90;;;;;;5133022;27;20262;-85
2023/03/11 13:29:13;;;;;;;9.40;9.10;;;3.10;99.90;;;;;;5129094;27;20239;-86
2023/03/11 13:34:56;;;;;;;9.50;9.20;;;2.90;99.90;;;;;;5127378;27;20220;-87
2023/03/11 13:37:35;;;;;;;9.40;9.10;;;3.00;99.90;;;;;;5126068;27;20252;-86
2023/03/11 13:40:24;;;;;;;9.43;9.13;;;3.10;99.90;;;;;;5127314;27;20239;-84
2023/03/11 13:45:38;;;;;;;9.60;9.30;;;3.10;99.90;;;;;;5124724;28;20228;-87
2023/03/11 13:48:17;;;;;;;9.53;9.23;;;3.10;99.90;;;;;;5124684;27;20274;-85
2023/03/11 13:50:54;;;;;;;9.70;9.40;;;3.00;99.90;;;;;;5125387;27;20228;-86
2023/03/11 13:53:34;;;;;;;9.70;9.40;;;3.00;99.90;;;;;;5125294;27;20232;-85
2023/03/11 13:56:02;;;;;;;9.73;9.43;;;3.10;99.90;;;;;;5125846;27;20220;-86
2023/03/11 13:58:32;;;;;;;9.77;9.47;;;3.20;99.90;;;;;;5125675;27;20233;-85
2023/03/11 14:01:02;;;;;;;9.90;9.60;;;3.30;99.90;;;;;;5124960;27;20255;-86
2023/03/11 14:03:41;;;;;;;9.70;9.40;;;3.30;99.90;;;;;;5138539;27;20247;-87
2023/03/11 14:06:13;;;;;;;9.77;9.47;;;3.40;99.90;;;;;;5141657;27;20228;-88
2023/03/11 14:08:42;;;;;;;9.77;9.47;;;3.40;99.90;;;;;;5125096;28;20216;-86
2023/03/11 14:11:19;;;;;;;9.50;9.20;;;3.40;99.90;;;;;;5124962;28;20237;-86
2023/03/11 14:13:49;;;;;;;9.23;8.93;;;3.40;99.90;;;;;;5125573;27;20232;-87
2023/03/11 14:16:30;;;;;;;9.00;8.80;;;3.40;99.90;;;;;;5125106;27;20229;-86
2023/03/11 14:19:14;;;;;;;9.53;9.23;;;3.30;99.90;;;;;;5126433;27;20232;-87
2023/03/11 14:21:43;;;;;;;9.40;9.10;;;3.30;99.90;;;;;;5124010;27;20220;-86
2023/03/11 14:24:21;;;;;;;9.37;9.07;;;3.40;99.90;;;;;;5124917;28;20232;-86
2023/03/11 14:26:58;;;;;;;9.33;9.03;;;3.40;99.90;;;;;;5124370;28;20224;-88